MKC weather

Charles B. Wheeler Downtown Airport
Kansas City, Missouri, United States

Public forecast

Using degrees Fahrenheit for public forecast. Weather courtesy of forecast.io.

METAR (pilot weather report)

Retrieved 2018/07/20 18:54 UTC (21 minutes ago):

KMKC 201854Z 31006KT 10SM CLR 31/18 A2990 RMK AO2 SLP114 T03110178

TAF (pilot weather forecast)

Retrieved 2018/07/20 18:33 UTC (42 minutes ago):

TAF KMKC 201731Z 2018/2118 33005KT P6SM VCTS BKN100CB FM202300 32004KT P6SM SCT100